createdAt,value
2018-12-03T00:01:56.515Z,111.10
2018-12-03T00:04:29.962Z,122.87
2018-12-03T00:07:03.094Z,75.50
2018-12-03T00:09:34.585Z,89.13
2018-12-03T00:12:06.653Z,92.70
2018-12-03T00:14:38.052Z,94.00
2018-12-03T00:17:09.504Z,122.10
2018-12-03T00:19:41.642Z,140.43
2018-12-03T00:22:12.821Z,125.23
2018-12-03T00:24:44.470Z,120.53
2018-12-03T00:27:16.045Z,111.03
2018-12-03T00:29:47.378Z,119.90
2018-12-03T00:32:19.768Z,103.50
2018-12-03T00:34:51.955Z,96.27
2018-12-03T00:37:24.150Z,74.73
2018-12-03T00:39:56.375Z,130.17
2018-12-03T00:42:27.762Z,108.50
2018-12-03T00:44:59.223Z,133.20
2018-12-03T00:47:30.600Z,84.13
2018-12-03T00:50:02.004Z,100.73
2018-12-03T00:52:33.671Z,87.70
2018-12-03T00:55:05.984Z,102.37
2018-12-03T00:57:38.481Z,127.03
2018-12-03T01:00:11.399Z,115.03
2018-12-03T01:02:42.758Z,114.40
2018-12-03T01:05:14.062Z,104.07
2018-12-03T01:07:46.246Z,109.50
2018-12-03T01:10:17.620Z,107.60
2018-12-03T01:12:49.545Z,132.63
2018-12-03T01:15:21.901Z,122.93
2018-12-03T01:17:53.963Z,102.57
2018-12-03T01:20:25.286Z,79.00
2018-12-03T01:22:56.700Z,111.53
2018-12-03T01:25:28.324Z,126.97
2018-12-03T01:28:00.199Z,113.80
2018-12-03T01:30:31.794Z,129.87
2018-12-03T01:33:03.099Z,109.07
2018-12-03T01:35:34.582Z,114.23
2018-12-03T01:38:06.247Z,102.63
2018-12-03T01:40:37.937Z,114.57
2018-12-03T01:43:09.284Z,72.27
2018-12-03T01:45:40.511Z,93.03
2018-12-03T01:48:12.020Z,69.30
2018-12-03T01:50:43.604Z,113.80
2018-12-03T01:53:15.392Z,130.60
2018-12-03T01:55:47.183Z,116.17
2018-12-03T01:58:18.718Z,123.23
2018-12-03T02:00:50.812Z,153.83
2018-12-03T02:03:23.272Z,150.07
2018-12-03T02:05:55.456Z,134.90
2018-12-03T02:08:26.972Z,112.20
2018-12-03T02:10:58.940Z,146.87
2018-12-03T02:13:30.641Z,113.37
2018-12-03T02:16:02.830Z,140.40
2018-12-03T02:18:35.423Z,87.47
2018-12-03T02:21:07.387Z,119.80
2018-12-03T02:23:38.986Z,168.23
2018-12-03T02:26:10.327Z,152.20
2018-12-03T02:28:41.768Z,139.93
2018-12-03T02:31:13.783Z,81.83
2018-12-03T02:33:46.012Z,154.40
2018-12-03T02:36:17.316Z,109.30
2018-12-03T02:38:49.965Z,161.60
2018-12-03T02:41:21.487Z,137.50
2018-12-03T02:43:53.310Z,131.87
2018-12-03T02:46:24.699Z,167.23
2018-12-03T02:48:56.899Z,163.87
2018-12-03T02:51:28.207Z,157.57
2018-12-03T02:53:59.757Z,164.87
2018-12-03T02:56:31.470Z,101.60
2018-12-03T02:59:02.850Z,141.77
2018-12-03T03:01:34.466Z,71.57
2018-12-03T03:04:06.216Z,154.43
2018-12-03T03:06:37.599Z,164.13
2018-12-03T03:09:11.465Z,108.37
2018-12-03T03:11:42.952Z,176.80
2018-12-03T03:14:14.599Z,130.67
2018-12-03T03:16:45.859Z,180.77
2018-12-03T03:19:17.285Z,166.93
2018-12-03T03:21:48.723Z,167.10
2018-12-03T03:24:20.869Z,150.07
2018-12-03T03:26:52.625Z,140.97
2018-12-03T03:29:24.637Z,177.23
2018-12-03T03:31:56.122Z,164.73
2018-12-03T03:34:27.442Z,114.77
2018-12-03T03:36:59.401Z,115.83
2018-12-03T03:39:30.870Z,187.03
2018-12-03T03:42:02.473Z,120.13
2018-12-03T03:44:34.498Z,184.07
2018-12-03T03:47:05.998Z,139.67
2018-12-03T03:49:37.434Z,185.87
2018-12-03T03:52:09.201Z,210.40
2018-12-03T03:54:40.779Z,223.37
2018-12-03T03:57:12.075Z,139.63
2018-12-03T03:59:43.866Z,192.17
2018-12-03T04:02:15.345Z,191.97
2018-12-03T04:04:46.709Z,206.57
2018-12-03T04:07:20.422Z,136.07
2018-12-03T04:09:51.750Z,209.33
2018-12-03T04:12:23.621Z,197.77
2018-12-03T04:14:55.388Z,227.43
2018-12-03T04:17:26.700Z,213.03
2018-12-03T04:19:58.368Z,168.03
2018-12-03T04:22:29.640Z,200.23
2018-12-03T04:25:01.132Z,225.50
2018-12-03T04:27:32.478Z,197.10
2018-12-03T04:30:03.964Z,202.97
2018-12-03T04:32:35.484Z,228.67
2018-12-03T04:35:07.395Z,226.73
2018-12-03T04:37:38.905Z,275.63
2018-12-03T04:40:18.138Z,171.80
2018-12-03T04:42:49.603Z,178.23
2018-12-03T04:45:21.647Z,234.60
2018-12-03T04:47:53.225Z,183.00
2018-12-03T04:50:24.869Z,168.53
2018-12-03T04:52:56.692Z,209.43
2018-12-03T04:55:28.397Z,167.70
2018-12-03T04:58:00.486Z,125.03
2018-12-03T05:00:32.340Z,185.43
2018-12-03T05:03:06.104Z,200.27
2018-12-03T05:05:37.919Z,171.37
2018-12-03T05:08:10.287Z,175.17
2018-12-03T05:10:41.957Z,139.17
2018-12-03T05:13:13.550Z,166.70
2018-12-03T05:15:45.381Z,118.33
2018-12-03T05:18:17.212Z,108.20
2018-12-03T05:20:48.763Z,163.37
2018-12-03T05:23:20.368Z,102.97
2018-12-03T05:25:52.280Z,132.43
2018-12-03T05:28:23.979Z,145.17
2018-12-03T05:30:55.795Z,90.87
2018-12-03T05:33:28.095Z,159.83
2018-12-03T05:36:00.703Z,213.43
2018-12-03T05:38:32.489Z,201.53
2018-12-03T05:41:04.632Z,181.10
2018-12-03T05:43:36.086Z,173.13
2018-12-03T05:46:07.362Z,140.03
2018-12-03T05:48:38.660Z,164.37
2018-12-03T05:51:10.125Z,192.00
2018-12-03T05:53:41.423Z,169.97
2018-12-03T05:56:13.034Z,193.70
2018-12-03T05:58:44.283Z,208.80
2018-12-03T06:01:15.784Z,172.57
2018-12-03T06:03:47.723Z,209.23
2018-12-03T06:06:19.454Z,187.67
2018-12-03T06:08:51.446Z,227.10
2018-12-03T06:11:23.542Z,216.30
2018-12-03T06:13:55.911Z,181.23
2018-12-03T06:16:27.926Z,197.80
2018-12-03T06:18:59.561Z,183.37
2018-12-03T06:21:31.064Z,183.87
2018-12-03T06:24:03.626Z,193.70
2018-12-03T06:26:35.580Z,183.27
2018-12-03T06:29:07.340Z,222.60
2018-12-03T06:31:39.108Z,181.17
2018-12-03T06:34:10.502Z,181.87
2018-12-03T06:36:41.994Z,182.93
2018-12-03T06:39:13.397Z,214.43
2018-12-03T06:41:45.041Z,222.53
2018-12-03T06:44:16.555Z,199.90
2018-12-03T06:46:48.091Z,179.90
2018-12-03T06:49:19.552Z,180.90
2018-12-03T06:51:51.058Z,206.13
2018-12-03T06:54:22.883Z,153.67
2018-12-03T06:56:55.087Z,178.23
2018-12-03T06:59:27.581Z,169.53
2018-12-03T07:01:59.321Z,157.60
2018-12-03T07:04:31.302Z,227.80
2018-12-03T07:07:03.047Z,168.67
2018-12-03T07:09:35.771Z,191.83
2018-12-03T07:12:10.026Z,161.03
2018-12-03T07:14:44.264Z,161.17
2018-12-03T07:17:19.863Z,173.07
2018-12-03T07:19:51.852Z,239.43
2018-12-03T07:22:23.531Z,178.33
2018-12-03T07:24:58.661Z,205.33
2018-12-03T07:27:33.098Z,185.00
2018-12-03T07:30:06.840Z,200.53
2018-12-03T07:32:38.917Z,205.53
2018-12-03T07:35:10.697Z,229.40
2018-12-03T07:37:43.609Z,193.77
2018-12-03T07:40:16.109Z,128.03
2018-12-03T07:42:48.649Z,196.53
2018-12-03T07:45:24.634Z,189.83
2018-12-03T07:47:59.194Z,160.23
2018-12-03T07:50:31.410Z,193.63
2018-12-03T07:53:04.320Z,157.37
2018-12-03T07:55:35.684Z,172.33
2018-12-03T07:58:18.819Z,138.40
2018-12-03T08:00:52.063Z,138.10
2018-12-03T08:03:24.064Z,176.10
2018-12-03T08:05:55.879Z,118.47
2018-12-03T08:08:28.912Z,171.00
2018-12-03T08:11:02.442Z,64.37
2018-12-03T08:13:34.068Z,181.70
2018-12-03T08:16:05.853Z,150.37
2018-12-03T08:18:38.104Z,148.13
2018-12-03T08:21:11.093Z,134.13
2018-12-03T08:24:11.779Z,156.23
2018-12-03T08:26:44.773Z,128.93
2018-12-03T08:29:16.695Z,126.30
2018-12-03T08:31:48.416Z,107.63
2018-12-03T08:34:19.924Z,126.17
2018-12-03T08:36:51.597Z,119.13
2018-12-03T08:39:23.157Z,142.13
2018-12-03T08:41:55.142Z,147.07
2018-12-03T08:44:31.858Z,133.83
2018-12-03T08:47:09.607Z,134.13
2018-12-03T08:49:41.233Z,117.10
2018-12-03T08:52:15.404Z,126.20
2018-12-03T08:54:47.644Z,123.03
2018-12-03T08:57:19.650Z,131.93
2018-12-03T08:59:50.953Z,131.37
2018-12-03T09:02:22.440Z,128.37
2018-12-03T09:04:55.387Z,121.73
2018-12-03T09:07:26.962Z,97.13
2018-12-03T09:09:58.810Z,134.73
2018-12-03T09:12:30.405Z,115.70
2018-12-03T09:15:03.144Z,122.63
2018-12-03T09:17:34.848Z,102.73
2018-12-03T09:20:08.828Z,102.50
2018-12-03T09:22:41.346Z,121.60
2018-12-03T09:25:30.741Z,118.07
2018-12-03T09:28:06.148Z,110.53
2018-12-03T09:30:38.606Z,108.23
2018-12-03T09:33:11.777Z,112.43
2018-12-03T09:35:44.406Z,93.93
2018-12-03T09:38:17.258Z,106.57
2018-12-03T09:40:49.192Z,113.67
2018-12-03T09:43:21.369Z,87.10
2018-12-03T09:45:53.884Z,92.57
2018-12-03T09:48:25.634Z,83.40
2018-12-03T09:50:57.093Z,95.43
2018-12-03T09:53:31.453Z,89.03
2018-12-03T09:56:03.464Z,93.37
2018-12-03T09:58:35.272Z,94.10
2018-12-03T10:01:11.550Z,98.93
2018-12-03T10:03:46.889Z,88.00
2018-12-03T10:06:19.694Z,96.10
2018-12-03T10:08:51.601Z,75.00
2018-12-03T10:11:26.104Z,70.23
2018-12-03T10:13:58.070Z,88.57
2018-12-03T10:16:30.391Z,89.50
2018-12-03T10:19:02.128Z,84.13
2018-12-03T10:21:34.064Z,89.03
2018-12-03T10:24:12.832Z,88.13
2018-12-03T10:26:46.336Z,83.10
2018-12-03T10:29:20.287Z,90.77
2018-12-03T10:31:52.912Z,86.37
2018-12-03T10:34:25.686Z,82.80
2018-12-03T10:37:04.350Z,76.07
2018-12-03T10:39:39.365Z,78.03
2018-12-03T10:42:13.485Z,77.63
2018-12-03T10:44:45.083Z,73.93
2018-12-03T10:47:17.353Z,65.17
2018-12-03T10:49:48.620Z,74.33
2018-12-03T10:52:21.384Z,70.80
2018-12-03T10:54:52.930Z,79.70
2018-12-03T10:57:25.155Z,77.00
2018-12-03T10:59:57.978Z,75.87
2018-12-03T11:02:53.417Z,79.93
2018-12-03T11:05:43.965Z,70.70
2018-12-03T11:08:21.759Z,58.33
2018-12-03T11:10:54.720Z,64.90
2018-12-03T11:13:26.219Z,75.80
2018-12-03T11:15:58.105Z,75.50
2018-12-03T11:18:30.452Z,70.90
2018-12-03T11:21:06.374Z,77.77
2018-12-03T11:23:38.733Z,78.97
2018-12-03T11:26:10.550Z,84.20
2018-12-03T11:28:49.121Z,70.97
2018-12-03T11:31:38.984Z,69.10
2018-12-03T11:34:10.581Z,76.87
2018-12-03T11:36:50.746Z,84.10
2018-12-03T11:39:59.676Z,73.50
2018-12-03T11:42:36.695Z,76.10
2018-12-03T11:45:10.832Z,71.03
2018-12-03T11:47:42.340Z,86.03
2018-12-03T11:50:14.462Z,74.80
2018-12-03T11:52:46.305Z,87.23
2018-12-03T11:55:17.946Z,88.57
2018-12-03T11:57:50.805Z,85.50
2018-12-03T12:00:23.176Z,79.87
2018-12-03T12:02:54.980Z,75.60
2018-12-03T12:05:27.513Z,67.13
2018-12-03T12:07:59.297Z,59.53
2018-12-03T12:10:31.281Z,73.27
2018-12-03T12:13:04.857Z,64.80
2018-12-03T12:15:36.484Z,73.50
2018-12-03T12:18:08.070Z,73.70
2018-12-03T12:20:39.762Z,69.67
2018-12-03T12:23:11.552Z,67.87
2018-12-03T12:25:43.914Z,72.30
2018-12-03T12:28:16.173Z,60.10
2018-12-03T12:30:48.465Z,75.00
2018-12-03T12:33:20.202Z,65.77
2018-12-03T12:35:52.046Z,64.60
2018-12-03T12:38:24.424Z,71.83
2018-12-03T12:40:55.835Z,64.70
2018-12-03T12:43:27.366Z,74.97
2018-12-03T12:46:10.339Z,65.83
2018-12-03T12:48:41.891Z,73.07
2018-12-03T12:51:14.052Z,57.10
2018-12-03T12:53:45.508Z,74.80
2018-12-03T12:56:20.411Z,60.00
2018-12-03T12:58:52.043Z,70.57
2018-12-03T13:01:23.781Z,70.97
2018-12-03T13:03:57.912Z,72.93
2018-12-03T13:06:32.360Z,64.00
2018-12-03T13:09:05.360Z,64.57
2018-12-03T13:11:37.040Z,67.60
2018-12-03T13:14:10.223Z,60.20
2018-12-03T13:16:42.540Z,61.10
2018-12-03T13:19:14.025Z,63.30
2018-12-03T13:21:45.682Z,67.70
2018-12-03T13:24:19.453Z,71.13
2018-12-03T13:26:51.051Z,68.20
2018-12-03T13:29:23.304Z,63.97
2018-12-03T13:31:54.660Z,76.20
2018-12-03T13:34:26.147Z,68.73
2018-12-03T13:36:57.872Z,57.30
2018-12-03T13:39:29.402Z,59.03
2018-12-03T13:42:00.686Z,62.07
2018-12-03T13:44:32.851Z,60.03
2018-12-03T13:47:04.970Z,53.43
2018-12-03T13:49:36.389Z,65.17
2018-12-03T13:52:08.517Z,58.97
2018-12-03T13:54:39.800Z,66.30
2018-12-03T13:57:12.125Z,67.50
2018-12-03T13:59:43.957Z,62.03
2018-12-03T14:02:15.643Z,65.17
2018-12-03T14:04:47.380Z,66.60
2018-12-03T14:07:28.799Z,64.97
2018-12-03T14:10:52.853Z,59.93
2018-12-03T14:14:10.674Z,56.23
2018-12-03T14:17:13.693Z,62.47
2018-12-03T14:19:48.894Z,62.43
2018-12-03T14:22:27.116Z,66.63
2018-12-03T14:24:58.431Z,77.80
2018-12-03T14:27:29.859Z,78.43
2018-12-03T14:30:01.584Z,67.03
2018-12-03T14:32:33.443Z,83.60
2018-12-03T14:35:05.904Z,66.73
2018-12-03T14:37:37.197Z,70.10
2018-12-03T14:40:09.812Z,78.63
2018-12-03T14:42:41.580Z,62.13
2018-12-03T14:45:14.360Z,88.30
2018-12-03T14:47:46.016Z,74.87
2018-12-03T14:50:17.647Z,78.83
2018-12-03T14:52:50.077Z,79.00
2018-12-03T14:55:21.433Z,91.80
2018-12-03T14:57:53.154Z,78.90
2018-12-03T15:00:24.731Z,80.73
2018-12-03T15:02:56.824Z,84.87
2018-12-03T15:05:29.079Z,89.30
2018-12-03T15:08:00.629Z,98.60
2018-12-03T15:10:31.997Z,92.40
2018-12-03T15:13:03.415Z,89.17
2018-12-03T15:15:34.774Z,88.13
2018-12-03T15:18:06.465Z,85.73
2018-12-03T15:20:38.021Z,95.77
2018-12-03T15:23:09.568Z,88.33
2018-12-03T15:25:41.242Z,89.03
2018-12-03T15:28:15.441Z,88.90
2018-12-03T15:30:46.707Z,87.47
2018-12-03T15:33:19.386Z,91.10
2018-12-03T15:35:51.132Z,106.20
2018-12-03T15:38:23.144Z,95.90
2018-12-03T15:40:55.836Z,91.50
2018-12-03T15:43:27.709Z,99.70
2018-12-03T15:45:59.629Z,97.07
2018-12-03T15:48:31.510Z,106.83
2018-12-03T15:51:03.356Z,98.23
2018-12-03T15:53:35.184Z,78.63
2018-12-03T15:56:06.788Z,97.77
2018-12-03T15:58:39.014Z,101.23
2018-12-03T16:01:14.418Z,91.67
2018-12-03T16:03:44.239Z,102.00
2018-12-03T16:06:16.037Z,91.77
2018-12-03T16:08:47.908Z,106.20
2018-12-03T16:11:19.457Z,101.20
2018-12-03T16:13:51.152Z,100.23
2018-12-03T16:16:23.216Z,91.90
2018-12-03T16:18:59.809Z,99.27
2018-12-03T16:21:31.356Z,105.23
2018-12-03T16:24:03.194Z,99.10
2018-12-03T16:26:34.848Z,98.40
2018-12-03T16:29:06.256Z,105.10
2018-12-03T16:31:38.347Z,100.33
2018-12-03T16:34:11.056Z,109.50
2018-12-03T16:36:42.617Z,106.00
2018-12-03T16:39:17.660Z,93.67
2018-12-03T16:41:49.723Z,101.33
2018-12-03T16:44:21.267Z,119.27
2018-12-03T16:46:53.131Z,114.60
2018-12-03T16:49:30.267Z,119.67
2018-12-03T16:52:01.925Z,122.13
2018-12-03T16:54:33.523Z,127.47
2018-12-03T16:57:06.462Z,132.50
2018-12-03T16:59:37.968Z,137.90
2018-12-03T17:02:09.695Z,111.13
2018-12-03T17:04:41.989Z,88.47
2018-12-03T17:07:14.166Z,118.13
2018-12-03T17:09:45.596Z,117.07
2018-12-03T17:12:20.801Z,129.97
2018-12-03T17:14:52.444Z,125.70
2018-12-03T17:17:24.049Z,134.87
2018-12-03T17:20:03.671Z,139.13
2018-12-03T17:23:02.940Z,150.30
2018-12-03T17:25:34.628Z,122.10
2018-12-03T17:28:06.832Z,113.40
2018-12-03T17:30:38.353Z,122.70
2018-12-03T17:33:10.042Z,132.40
2018-12-03T17:35:42.434Z,137.97
2018-12-03T17:38:14.241Z,150.27
2018-12-03T17:40:46.420Z,154.67
2018-12-03T17:43:18.027Z,164.43
2018-12-03T17:45:50.191Z,168.00
2018-12-03T17:48:22.368Z,157.40
2018-12-03T17:50:54.696Z,135.17
2018-12-03T17:53:26.751Z,161.53
2018-12-03T17:55:58.262Z,142.30
2018-12-03T17:58:32.228Z,146.90
2018-12-03T18:01:05.222Z,137.57
2018-12-03T18:03:37.010Z,138.80
2018-12-03T18:06:09.522Z,125.97
2018-12-03T18:08:43.959Z,135.40
2018-12-03T18:11:17.389Z,138.00
2018-12-03T18:13:48.971Z,115.07
2018-12-03T18:16:21.255Z,132.23
2018-12-03T18:18:52.511Z,117.43
2018-12-03T18:21:24.850Z,114.37
2018-12-03T18:23:56.213Z,129.50
2018-12-03T18:26:29.957Z,132.43
2018-12-03T18:29:02.085Z,119.07
2018-12-03T18:31:36.132Z,109.83
2018-12-03T18:34:09.295Z,145.40
2018-12-03T18:36:40.835Z,100.90
2018-12-03T18:39:12.849Z,117.17
2018-12-03T18:41:44.526Z,127.20
2018-12-03T18:44:16.481Z,128.70
2018-12-03T18:46:49.882Z,112.87
2018-12-03T18:49:44.158Z,138.20
2018-12-03T18:52:18.555Z,144.47
2018-12-03T18:54:52.226Z,123.47
2018-12-03T18:57:26.723Z,123.63
2018-12-03T18:59:58.476Z,130.93
2018-12-03T19:02:29.962Z,134.33
2018-12-03T19:05:02.092Z,102.83
2018-12-03T19:07:33.490Z,115.97
2018-12-03T19:10:05.028Z,114.73
2018-12-03T19:12:36.782Z,124.27
2018-12-03T19:15:09.117Z,107.77
2018-12-03T19:17:40.921Z,119.40
2018-12-03T19:20:13.471Z,113.80
2018-12-03T19:22:45.073Z,107.40
2018-12-03T19:25:17.601Z,96.93
2018-12-03T19:27:49.213Z,114.50
2018-12-03T19:30:20.753Z,114.43
2018-12-03T19:32:54.504Z,108.50
2018-12-03T19:35:31.329Z,104.77
2018-12-03T19:38:08.324Z,124.27
2018-12-03T19:40:41.094Z,82.83
2018-12-03T19:43:13.928Z,115.33
2018-12-03T19:45:46.405Z,115.87
2018-12-03T19:48:18.803Z,127.80
2018-12-03T19:50:50.800Z,120.47
2018-12-03T19:53:23.439Z,109.27
2018-12-03T19:55:58.363Z,97.47
2018-12-03T19:58:38.880Z,117.27
2018-12-03T20:01:10.629Z,84.67
2018-12-03T20:03:43.037Z,122.90
2018-12-03T20:06:15.150Z,128.90
2018-12-03T20:08:47.017Z,110.13
2018-12-03T20:11:19.501Z,131.83
2018-12-03T20:13:51.985Z,113.43
2018-12-03T20:16:23.809Z,106.40
2018-12-03T20:18:57.426Z,103.73
2018-12-03T20:21:29.579Z,127.87
2018-12-03T20:24:13.079Z,136.77
2018-12-03T20:27:24.732Z,128.70
2018-12-03T20:30:31.504Z,112.53
2018-12-03T20:33:27.731Z,135.73
2018-12-03T20:36:16.818Z,123.50
2018-12-03T20:39:13.396Z,126.57
2018-12-03T20:41:49.629Z,115.23
2018-12-03T20:44:47.377Z,115.73
2018-12-03T20:47:41.410Z,110.43
2018-12-03T20:50:38.425Z,128.90
2018-12-03T20:53:11.729Z,127.27
2018-12-03T20:55:46.073Z,120.60
2018-12-03T20:58:17.888Z,121.50
2018-12-03T21:00:49.516Z,130.90
2018-12-03T21:03:21.227Z,124.57
2018-12-03T21:05:52.992Z,113.37
2018-12-03T21:08:24.859Z,99.03
2018-12-03T21:10:56.623Z,103.87
2018-12-03T21:13:29.019Z,109.73
2018-12-03T21:16:02.476Z,112.57
2018-12-03T21:18:34.106Z,103.33
2018-12-03T21:21:08.138Z,118.83
2018-12-03T21:23:39.733Z,106.93
2018-12-03T21:26:11.603Z,107.20
2018-12-03T21:28:44.016Z,96.03
2018-12-03T21:31:15.535Z,106.53
2018-12-03T21:33:47.364Z,110.33
2018-12-03T21:36:19.589Z,123.33
2018-12-03T21:38:51.380Z,91.60
2018-12-03T21:41:23.559Z,111.60
2018-12-03T21:43:55.266Z,108.70
2018-12-03T21:46:26.704Z,109.40
2018-12-03T21:48:58.159Z,109.90
2018-12-03T21:51:29.869Z,115.33
2018-12-03T21:54:01.596Z,104.40
2018-12-03T21:56:33.129Z,108.43
2018-12-03T21:59:04.603Z,116.27
2018-12-03T22:01:39.487Z,95.63
2018-12-03T22:04:11.229Z,106.63
2018-12-03T22:06:43.215Z,106.53
2018-12-03T22:09:14.892Z,92.83
2018-12-03T22:11:46.211Z,103.17
2018-12-03T22:14:17.665Z,103.30
2018-12-03T22:16:49.733Z,99.23
2018-12-03T22:19:21.363Z,98.83
2018-12-03T22:21:52.893Z,100.67
2018-12-03T22:24:24.318Z,110.40
2018-12-03T22:26:55.792Z,103.80
2018-12-03T22:29:27.235Z,99.77
2018-12-03T22:31:58.641Z,113.93
2018-12-03T22:34:30.236Z,98.20
2018-12-03T22:37:01.592Z,107.90
2018-12-03T22:39:33.795Z,97.70
2018-12-03T22:42:05.639Z,110.10
2018-12-03T22:44:37.186Z,104.70
2018-12-03T22:47:09.144Z,103.80
2018-12-03T22:50:26.226Z,109.23
2018-12-03T22:52:57.106Z,109.37
2018-12-03T22:55:28.081Z,104.80
2018-12-03T22:57:59.388Z,97.27
2018-12-03T23:00:35.710Z,105.83
2018-12-03T23:03:06.933Z,100.83
2018-12-03T23:05:39.121Z,91.77
2018-12-03T23:08:09.544Z,93.77
2018-12-03T23:10:40.375Z,102.30
2018-12-03T23:13:12.055Z,92.90
2018-12-03T23:15:42.597Z,100.93
2018-12-03T23:18:13.322Z,88.73
2018-12-03T23:20:43.951Z,103.13
2018-12-03T23:23:14.649Z,100.60
2018-12-03T23:25:45.382Z,86.63
2018-12-03T23:28:16.113Z,97.27
2018-12-03T23:30:46.657Z,97.30
2018-12-03T23:33:16.544Z,104.87
2018-12-03T23:35:46.840Z,94.47
2018-12-03T23:38:17.078Z,106.47
2018-12-03T23:40:48.085Z,105.37
2018-12-03T23:43:18.397Z,107.77
2018-12-03T23:45:48.232Z,104.23
2018-12-03T23:48:18.454Z,112.37
2018-12-03T23:50:49.000Z,117.20
2018-12-03T23:53:19.430Z,116.50
2018-12-03T23:55:50.038Z,105.20
2018-12-03T23:58:23.526Z,114.40
